sensor_id;sensor_type;location;lat;lon;timestamp;pressure;altitude;pressure_sealevel;temperature;humidity
12077;BME280;12420;42.676;23.262;2022-12-18T00:00:44;95314.59;;;7.14;100.00
12077;BME280;12420;42.676;23.262;2022-12-18T00:03:12;95292.94;;;6.69;100.00
12077;BME280;12420;42.676;23.262;2022-12-18T00:05:47;95250.69;;;6.46;100.00
12077;BME280;12420;42.676;23.262;2022-12-18T00:08:14;95263.75;;;6.51;100.00
12077;BME280;12420;42.676;23.262;2022-12-18T00:10:41;95259.91;;;6.43;100.00
12077;BME280;12420;42.676;23.262;2022-12-18T00:13:10;95262.75;;;6.28;100.00
12077;BME280;12420;42.676;23.262;2022-12-18T00:15:38;95328.19;;;6.71;100.00
12077;BME280;12420;42.676;23.262;2022-12-18T00:18:06;95331.16;;;6.67;100.00
12077;BME280;12420;42.676;23.262;2022-12-18T00:20:36;95301.47;;;6.51;100.00
12077;BME280;12420;42.676;23.262;2022-12-18T00:23:05;95336.03;;;6.78;100.00
12077;BME280;12420;42.676;23.262;2022-12-18T00:25:33;95333.97;;;6.73;100.00
12077;BME280;12420;42.676;23.262;2022-12-18T00:28:00;95344.16;;;6.67;100.00
12077;BME280;12420;42.676;23.262;2022-12-18T00:30:27;95351.97;;;6.74;100.00
12077;BME280;12420;42.676;23.262;2022-12-18T00:32:54;95346.09;;;6.87;100.00
12077;BME280;12420;42.676;23.262;2022-12-18T00:35:21;95357.94;;;6.93;100.00
12077;BME280;12420;42.676;23.262;2022-12-18T00:37:50;95339.38;;;6.88;100.00
12077;BME280;12420;42.676;23.262;2022-12-18T00:40:18;95328.16;;;6.91;100.00
12077;BME280;12420;42.676;23.262;2022-12-18T00:42:46;95347.13;;;6.89;100.00
12077;BME280;12420;42.676;23.262;2022-12-18T00:45:26;95359.16;;;6.92;100.00
12077;BME280;12420;42.676;23.262;2022-12-18T00:47:53;95359.06;;;7.07;100.00
12077;BME280;12420;42.676;23.262;2022-12-18T00:50:24;95361.66;;;7.16;100.00
12077;BME280;12420;42.676;23.262;2022-12-18T00:52:51;95310.09;;;6.85;100.00
12077;BME280;12420;42.676;23.262;2022-12-18T00:55:19;95368.53;;;7.26;100.00
12077;BME280;12420;42.676;23.262;2022-12-18T00:57:46;95369.38;;;7.12;100.00
12077;BME280;12420;42.676;23.262;2022-12-18T01:00:16;95357.22;;;6.72;100.00
12077;BME280;12420;42.676;23.262;2022-12-18T01:02:43;95377.44;;;7.15;100.00
12077;BME280;12420;42.676;23.262;2022-12-18T01:05:11;95348.09;;;6.86;100.00
12077;BME280;12420;42.676;23.262;2022-12-18T01:07:39;95352.41;;;6.67;100.00
12077;BME280;12420;42.676;23.262;2022-12-18T01:10:07;95384.66;;;6.66;100.00
12077;BME280;12420;42.676;23.262;2022-12-18T01:12:37;95365.75;;;6.53;100.00
12077;BME280;12420;42.676;23.262;2022-12-18T01:15:05;95387.41;;;6.66;100.00
12077;BME280;12420;42.676;23.262;2022-12-18T01:17:33;95339.44;;;6.26;100.00
12077;BME280;12420;42.676;23.262;2022-12-18T01:20:00;95223.16;;;5.23;100.00
12077;BME280;12420;42.676;23.262;2022-12-18T01:22:26;95386.53;;;6.34;100.00
12077;BME280;12420;42.676;23.262;2022-12-18T01:24:53;95387.69;;;6.48;100.00
12077;BME280;12420;42.676;23.262;2022-12-18T01:27:20;95396.00;;;6.33;100.00
12077;BME280;12420;42.676;23.262;2022-12-18T01:29:49;95421.66;;;6.45;100.00
12077;BME280;12420;42.676;23.262;2022-12-18T01:32:15;95394.44;;;6.47;100.00
12077;BME280;12420;42.676;23.262;2022-12-18T01:34:42;95407.56;;;6.37;100.00
12077;BME280;12420;42.676;23.262;2022-12-18T01:37:09;95396.44;;;6.26;100.00
12077;BME280;12420;42.676;23.262;2022-12-18T01:39:36;95352.19;;;5.74;100.00
12077;BME280;12420;42.676;23.262;2022-12-18T01:42:09;95399.53;;;5.98;100.00
12077;BME280;12420;42.676;23.262;2022-12-18T01:44:57;95399.41;;;5.93;100.00
12077;BME280;12420;42.676;23.262;2022-12-18T01:47:27;95373.34;;;5.68;100.00
12077;BME280;12420;42.676;23.262;2022-12-18T01:49:57;95409.00;;;5.82;100.00
12077;BME280;12420;42.676;23.262;2022-12-18T01:52:26;95402.66;;;5.91;100.00
12077;BME280;12420;42.676;23.262;2022-12-18T01:54:55;95356.88;;;5.68;100.00
12077;BME280;12420;42.676;23.262;2022-12-18T01:57:23;95378.41;;;5.75;100.00
12077;BME280;12420;42.676;23.262;2022-12-18T01:59:53;95408.00;;;6.15;100.00
12077;BME280;12420;42.676;23.262;2022-12-18T02:02:22;95373.78;;;5.81;100.00
12077;BME280;12420;42.676;23.262;2022-12-18T02:04:49;95356.56;;;5.65;100.00
12077;BME280;12420;42.676;23.262;2022-12-18T02:07:20;95414.13;;;6.04;100.00
12077;BME280;12420;42.676;23.262;2022-12-18T02:09:56;95410.72;;;5.95;100.00
12077;BME280;12420;42.676;23.262;2022-12-18T02:12:28;95411.81;;;6.03;100.00
12077;BME280;12420;42.676;23.262;2022-12-18T02:15:01;95419.22;;;6.12;100.00
12077;BME280;12420;42.676;23.262;2022-12-18T02:17:37;95419.00;;;6.15;100.00
12077;BME280;12420;42.676;23.262;2022-12-18T02:20:13;95377.63;;;5.89;100.00
12077;BME280;12420;42.676;23.262;2022-12-18T02:22:50;95402.16;;;6.07;100.00
12077;BME280;12420;42.676;23.262;2022-12-18T02:25:33;95421.28;;;6.17;100.00
12077;BME280;12420;42.676;23.262;2022-12-18T02:28:08;95463.13;;;6.41;100.00
12077;BME280;12420;42.676;23.262;2022-12-18T02:30:37;95438.78;;;6.34;100.00
12077;BME280;12420;42.676;23.262;2022-12-18T02:33:07;95434.56;;;6.18;100.00
12077;BME280;12420;42.676;23.262;2022-12-18T02:35:35;95422.34;;;6.04;100.00
12077;BME280;12420;42.676;23.262;2022-12-18T02:38:03;95436.22;;;6.30;100.00
12077;BME280;12420;42.676;23.262;2022-12-18T02:40:31;95445.44;;;6.13;100.00
12077;BME280;12420;42.676;23.262;2022-12-18T02:43:02;95443.41;;;6.28;100.00
12077;BME280;12420;42.676;23.262;2022-12-18T02:45:31;95438.50;;;6.32;100.00
12077;BME280;12420;42.676;23.262;2022-12-18T02:47:57;95450.47;;;6.14;100.00
12077;BME280;12420;42.676;23.262;2022-12-18T02:50:29;95435.44;;;5.80;100.00
12077;BME280;12420;42.676;23.262;2022-12-18T02:53:06;95453.06;;;5.88;100.00
12077;BME280;12420;42.676;23.262;2022-12-18T02:55:44;95441.97;;;5.97;100.00
12077;BME280;12420;42.676;23.262;2022-12-18T02:58:19;95445.28;;;5.86;100.00
12077;BME280;12420;42.676;23.262;2022-12-18T03:00:52;95442.16;;;5.79;100.00
12077;BME280;12420;42.676;23.262;2022-12-18T03:03:24;95431.56;;;5.72;100.00
12077;BME280;12420;42.676;23.262;2022-12-18T03:06:00;95380.75;;;5.02;100.00
12077;BME280;12420;42.676;23.262;2022-12-18T03:08:29;95422.88;;;5.29;100.00
12077;BME280;12420;42.676;23.262;2022-12-18T03:11:02;95461.13;;;5.47;100.00
12077;BME280;12420;42.676;23.262;2022-12-18T03:13:33;95467.00;;;5.40;100.00
12077;BME280;12420;42.676;23.262;2022-12-18T03:16:05;95470.41;;;5.35;100.00
12077;BME280;12420;42.676;23.262;2022-12-18T03:18:35;95444.81;;;5.29;100.00
12077;BME280;12420;42.676;23.262;2022-12-18T03:21:06;95423.03;;;5.10;100.00
12077;BME280;12420;42.676;23.262;2022-12-18T03:23:38;95464.31;;;5.31;100.00
12077;BME280;12420;42.676;23.262;2022-12-18T03:26:09;95475.25;;;5.55;100.00
12077;BME280;12420;42.676;23.262;2022-12-18T03:28:39;95496.94;;;5.68;100.00
12077;BME280;12420;42.676;23.262;2022-12-18T03:31:10;95488.66;;;5.82;100.00
12077;BME280;12420;42.676;23.262;2022-12-18T03:33:41;95460.19;;;5.50;100.00
12077;BME280;12420;42.676;23.262;2022-12-18T03:36:11;95463.38;;;5.34;100.00
12077;BME280;12420;42.676;23.262;2022-12-18T03:38:38;95479.88;;;5.63;100.00
12077;BME280;12420;42.676;23.262;2022-12-18T03:41:11;95472.75;;;5.57;100.00
12077;BME280;12420;42.676;23.262;2022-12-18T03:43:44;95500.72;;;5.70;100.00
12077;BME280;12420;42.676;23.262;2022-12-18T03:46:24;95490.34;;;5.20;100.00
12077;BME280;12420;42.676;23.262;2022-12-18T03:48:58;95489.41;;;5.23;100.00
12077;BME280;12420;42.676;23.262;2022-12-18T03:51:29;95520.22;;;5.57;100.00
12077;BME280;12420;42.676;23.262;2022-12-18T03:54:02;95521.06;;;5.63;100.00
12077;BME280;12420;42.676;23.262;2022-12-18T03:56:32;95522.41;;;5.83;100.00
12077;BME280;12420;42.676;23.262;2022-12-18T03:59:02;95514.16;;;5.68;100.00
12077;BME280;12420;42.676;23.262;2022-12-18T04:01:33;95515.66;;;5.54;100.00
12077;BME280;12420;42.676;23.262;2022-12-18T04:04:02;95501.81;;;5.34;100.00
12077;BME280;12420;42.676;23.262;2022-12-18T04:06:31;95524.31;;;5.23;100.00
12077;BME280;12420;42.676;23.262;2022-12-18T04:08:58;95526.59;;;5.25;100.00
12077;BME280;12420;42.676;23.262;2022-12-18T04:11:26;95531.81;;;5.22;100.00
12077;BME280;12420;42.676;23.262;2022-12-18T04:13:55;95532.75;;;5.19;100.00
12077;BME280;12420;42.676;23.262;2022-12-18T04:16:22;95464.97;;;4.48;100.00
12077;BME280;12420;42.676;23.262;2022-12-18T04:18:50;95545.22;;;5.20;100.00
12077;BME280;12420;42.676;23.262;2022-12-18T04:21:17;95545.91;;;5.30;100.00
12077;BME280;12420;42.676;23.262;2022-12-18T04:23:44;95557.66;;;5.31;100.00
12077;BME280;12420;42.676;23.262;2022-12-18T04:26:11;95547.38;;;5.16;100.00
12077;BME280;12420;42.676;23.262;2022-12-18T04:28:38;95533.75;;;5.07;100.00
12077;BME280;12420;42.676;23.262;2022-12-18T04:31:05;95572.38;;;5.18;100.00
12077;BME280;12420;42.676;23.262;2022-12-18T04:33:32;95562.13;;;5.04;100.00
12077;BME280;12420;42.676;23.262;2022-12-18T04:36:00;95567.72;;;5.10;100.00
12077;BME280;12420;42.676;23.262;2022-12-18T04:38:26;95571.16;;;5.19;100.00
12077;BME280;12420;42.676;23.262;2022-12-18T04:40:53;95535.16;;;4.78;100.00
12077;BME280;12420;42.676;23.262;2022-12-18T04:43:20;95612.59;;;5.21;100.00
12077;BME280;12420;42.676;23.262;2022-12-18T04:45:47;95568.59;;;5.16;100.00
12077;BME280;12420;42.676;23.262;2022-12-18T04:48:14;95604.91;;;5.35;100.00
12077;BME280;12420;42.676;23.262;2022-12-18T04:50:40;95589.94;;;5.36;100.00
12077;BME280;12420;42.676;23.262;2022-12-18T04:53:10;95592.75;;;5.51;100.00
12077;BME280;12420;42.676;23.262;2022-12-18T04:55:37;95594.84;;;5.56;100.00
12077;BME280;12420;42.676;23.262;2022-12-18T04:58:03;95529.53;;;4.73;100.00
12077;BME280;12420;42.676;23.262;2022-12-18T05:00:30;95554.16;;;5.06;100.00
12077;BME280;12420;42.676;23.262;2022-12-18T05:02:57;95607.88;;;5.46;100.00
12077;BME280;12420;42.676;23.262;2022-12-18T05:05:24;95615.59;;;5.33;100.00
12077;BME280;12420;42.676;23.262;2022-12-18T05:07:50;95609.75;;;5.16;100.00
12077;BME280;12420;42.676;23.262;2022-12-18T05:10:19;95595.69;;;5.23;100.00
12077;BME280;12420;42.676;23.262;2022-12-18T05:12:46;95621.53;;;5.55;100.00
12077;BME280;12420;42.676;23.262;2022-12-18T05:15:27;95644.41;;;5.37;100.00
12077;BME280;12420;42.676;23.262;2022-12-18T05:17:55;95634.47;;;5.40;100.00
12077;BME280;12420;42.676;23.262;2022-12-18T05:20:22;95616.75;;;4.93;100.00
12077;BME280;12420;42.676;23.262;2022-12-18T05:22:50;95635.72;;;5.06;100.00
12077;BME280;12420;42.676;23.262;2022-12-18T05:25:17;95629.41;;;4.90;100.00
12077;BME280;12420;42.676;23.262;2022-12-18T05:27:45;95636.16;;;4.80;100.00
12077;BME280;12420;42.676;23.262;2022-12-18T05:30:13;95585.28;;;4.46;100.00
12077;BME280;12420;42.676;23.262;2022-12-18T05:32:41;95635.66;;;4.91;100.00
12077;BME280;12420;42.676;23.262;2022-12-18T05:35:10;95650.94;;;4.83;100.00
12077;BME280;12420;42.676;23.262;2022-12-18T05:37:37;95694.88;;;4.64;100.00
12077;BME280;12420;42.676;23.262;2022-12-18T05:40:04;95664.00;;;4.54;100.00
12077;BME280;12420;42.676;23.262;2022-12-18T05:42:31;95532.28;;;3.18;100.00
12077;BME280;12420;42.676;23.262;2022-12-18T05:44:59;95608.06;;;4.09;100.00
12077;BME280;12420;42.676;23.262;2022-12-18T05:47:26;95666.78;;;4.36;100.00
12077;BME280;12420;42.676;23.262;2022-12-18T05:49:53;95654.47;;;4.22;100.00
12077;BME280;12420;42.676;23.262;2022-12-18T05:52:20;95640.19;;;4.09;100.00
12077;BME280;12420;42.676;23.262;2022-12-18T05:54:46;95605.41;;;3.45;100.00
12077;BME280;12420;42.676;23.262;2022-12-18T05:57:13;95671.53;;;4.26;100.00
12077;BME280;12420;42.676;23.262;2022-12-18T05:59:40;95675.50;;;4.25;100.00
12077;BME280;12420;42.676;23.262;2022-12-18T06:02:08;95678.94;;;4.35;100.00
12077;BME280;12420;42.676;23.262;2022-12-18T06:04:35;95688.88;;;4.23;100.00
12077;BME280;12420;42.676;23.262;2022-12-18T06:07:02;95684.16;;;4.24;100.00
12077;BME280;12420;42.676;23.262;2022-12-18T06:09:29;95675.06;;;3.90;100.00
12077;BME280;12420;42.676;23.262;2022-12-18T06:11:56;95686.41;;;4.34;100.00
12077;BME280;12420;42.676;23.262;2022-12-18T06:14:22;95709.84;;;4.54;100.00
12077;BME280;12420;42.676;23.262;2022-12-18T06:16:50;95698.25;;;4.59;100.00
12077;BME280;12420;42.676;23.262;2022-12-18T06:19:18;95695.81;;;4.52;100.00
12077;BME280;12420;42.676;23.262;2022-12-18T06:21:45;95694.13;;;4.64;100.00
12077;BME280;12420;42.676;23.262;2022-12-18T06:24:12;95695.19;;;4.57;100.00
12077;BME280;12420;42.676;23.262;2022-12-18T06:26:40;95703.16;;;4.46;100.00
12077;BME280;12420;42.676;23.262;2022-12-18T06:29:06;95708.03;;;4.51;100.00
12077;BME280;12420;42.676;23.262;2022-12-18T06:31:33;95698.88;;;4.45;100.00
12077;BME280;12420;42.676;23.262;2022-12-18T06:34:02;95660.59;;;4.08;100.00
12077;BME280;12420;42.676;23.262;2022-12-18T06:36:30;95713.06;;;4.25;100.00
12077;BME280;12420;42.676;23.262;2022-12-18T06:38:57;95695.44;;;4.17;100.00
12077;BME280;12420;42.676;23.262;2022-12-18T06:41:24;95699.53;;;4.12;100.00
12077;BME280;12420;42.676;23.262;2022-12-18T06:43:51;95719.78;;;4.33;100.00
12077;BME280;12420;42.676;23.262;2022-12-18T06:46:20;95725.53;;;4.35;100.00
12077;BME280;12420;42.676;23.262;2022-12-18T06:48:48;95724.47;;;4.42;100.00
12077;BME280;12420;42.676;23.262;2022-12-18T06:51:18;95740.34;;;4.38;100.00
12077;BME280;12420;42.676;23.262;2022-12-18T06:53:46;95699.88;;;3.96;100.00
12077;BME280;12420;42.676;23.262;2022-12-18T06:56:13;95675.97;;;3.96;100.00
12077;BME280;12420;42.676;23.262;2022-12-18T06:58:40;95729.06;;;4.26;100.00
12077;BME280;12420;42.676;23.262;2022-12-18T07:01:08;95747.34;;;4.20;100.00
12077;BME280;12420;42.676;23.262;2022-12-18T07:03:36;95743.38;;;4.30;100.00
12077;BME280;12420;42.676;23.262;2022-12-18T07:06:03;95734.25;;;4.24;100.00
12077;BME280;12420;42.676;23.262;2022-12-18T07:08:30;95752.97;;;4.44;100.00
12077;BME280;12420;42.676;23.262;2022-12-18T07:11:02;95747.00;;;4.55;100.00
12077;BME280;12420;42.676;23.262;2022-12-18T07:13:29;95754.16;;;4.62;100.00
12077;BME280;12420;42.676;23.262;2022-12-18T07:16:03;95781.41;;;4.74;100.00
12077;BME280;12420;42.676;23.262;2022-12-18T07:18:30;95758.25;;;4.66;100.00
12077;BME280;12420;42.676;23.262;2022-12-18T07:20:57;95761.31;;;4.59;100.00
12077;BME280;12420;42.676;23.262;2022-12-18T07:23:26;95732.13;;;4.01;100.00
12077;BME280;12420;42.676;23.262;2022-12-18T07:25:53;95747.47;;;4.44;100.00
12077;BME280;12420;42.676;23.262;2022-12-18T07:28:21;95769.25;;;4.48;100.00
12077;BME280;12420;42.676;23.262;2022-12-18T07:30:50;95780.19;;;4.66;100.00
12077;BME280;12420;42.676;23.262;2022-12-18T07:33:17;95678.88;;;3.92;100.00
12077;BME280;12420;42.676;23.262;2022-12-18T07:35:44;95772.41;;;4.65;100.00
12077;BME280;12420;42.676;23.262;2022-12-18T07:38:11;95699.09;;;4.13;100.00
12077;BME280;12420;42.676;23.262;2022-12-18T07:40:37;95722.81;;;4.35;100.00
12077;BME280;12420;42.676;23.262;2022-12-18T07:43:04;95788.25;;;4.79;100.00
12077;BME280;12420;42.676;23.262;2022-12-18T07:45:32;95745.63;;;4.60;100.00
12077;BME280;12420;42.676;23.262;2022-12-18T07:47:59;95786.75;;;4.69;100.00
12077;BME280;12420;42.676;23.262;2022-12-18T07:50:26;95777.47;;;4.66;100.00
12077;BME280;12420;42.676;23.262;2022-12-18T07:52:53;95779.16;;;4.36;100.00
12077;BME280;12420;42.676;23.262;2022-12-18T07:55:19;95788.75;;;4.41;100.00
12077;BME280;12420;42.676;23.262;2022-12-18T07:57:46;95676.41;;;3.48;100.00
12077;BME280;12420;42.676;23.262;2022-12-18T08:00:14;95793.47;;;4.31;100.00
12077;BME280;12420;42.676;23.262;2022-12-18T08:02:43;95800.31;;;4.26;100.00
12077;BME280;12420;42.676;23.262;2022-12-18T08:05:10;95818.47;;;4.33;100.00
12077;BME280;12420;42.676;23.262;2022-12-18T08:07:37;95797.91;;;4.38;100.00
12077;BME280;12420;42.676;23.262;2022-12-18T08:10:05;95802.00;;;4.24;100.00
12077;BME280;12420;42.676;23.262;2022-12-18T08:12:32;95807.63;;;4.29;100.00
12077;BME280;12420;42.676;23.262;2022-12-18T08:14:59;95792.72;;;4.30;100.00
12077;BME280;12420;42.676;23.262;2022-12-18T08:17:25;95791.78;;;4.24;100.00
12077;BME280;12420;42.676;23.262;2022-12-18T08:19:54;95818.00;;;4.25;100.00
12077;BME280;12420;42.676;23.262;2022-12-18T08:22:20;95818.59;;;4.11;100.00
12077;BME280;12420;42.676;23.262;2022-12-18T08:24:47;95815.50;;;3.90;100.00
12077;BME280;12420;42.676;23.262;2022-12-18T08:27:16;95807.25;;;3.81;100.00
12077;BME280;12420;42.676;23.262;2022-12-18T08:29:43;95815.50;;;3.90;100.00
12077;BME280;12420;42.676;23.262;2022-12-18T08:32:10;95835.03;;;4.20;100.00
12077;BME280;12420;42.676;23.262;2022-12-18T08:34:36;95834.44;;;4.25;100.00
12077;BME280;12420;42.676;23.262;2022-12-18T08:37:05;95826.19;;;3.98;100.00
12077;BME280;12420;42.676;23.262;2022-12-18T08:39:31;95847.22;;;4.28;100.00
12077;BME280;12420;42.676;23.262;2022-12-18T08:41:59;95833.19;;;4.17;100.00
12077;BME280;12420;42.676;23.262;2022-12-18T08:44:43;95851.94;;;4.19;100.00
12077;BME280;12420;42.676;23.262;2022-12-18T08:47:10;95842.63;;;4.16;100.00
12077;BME280;12420;42.676;23.262;2022-12-18T08:49:37;95827.38;;;3.97;100.00
12077;BME280;12420;42.676;23.262;2022-12-18T08:52:06;95849.34;;;4.24;100.00
12077;BME280;12420;42.676;23.262;2022-12-18T08:54:32;95845.97;;;4.11;100.00
12077;BME280;12420;42.676;23.262;2022-12-18T08:56:59;95841.69;;;4.01;100.00
12077;BME280;12420;42.676;23.262;2022-12-18T08:59:26;95847.19;;;4.01;100.00
12077;BME280;12420;42.676;23.262;2022-12-18T09:01:53;95781.22;;;3.67;100.00
12077;BME280;12420;42.676;23.262;2022-12-18T09:04:21;95848.13;;;4.16;100.00
12077;BME280;12420;42.676;23.262;2022-12-18T09:06:47;95853.88;;;4.00;100.00
12077;BME280;12420;42.676;23.262;2022-12-18T09:09:16;95842.31;;;3.96;100.00
12077;BME280;12420;42.676;23.262;2022-12-18T09:11:43;95804.41;;;3.94;100.00
12077;BME280;12420;42.676;23.262;2022-12-18T09:14:10;95841.13;;;4.15;100.00
12077;BME280;12420;42.676;23.262;2022-12-18T09:16:37;95841.88;;;4.16;100.00
12077;BME280;12420;42.676;23.262;2022-12-18T09:19:06;95845.69;;;4.18;100.00
12077;BME280;12420;42.676;23.262;2022-12-18T09:21:34;95842.81;;;4.12;100.00
12077;BME280;12420;42.676;23.262;2022-12-18T09:24:01;95836.53;;;4.12;100.00
12077;BME280;12420;42.676;23.262;2022-12-18T09:26:30;95793.31;;;3.98;100.00
12077;BME280;12420;42.676;23.262;2022-12-18T09:28:56;95802.16;;;4.11;100.00
12077;BME280;12420;42.676;23.262;2022-12-18T09:31:24;95849.22;;;4.28;100.00
12077;BME280;12420;42.676;23.262;2022-12-18T09:33:51;95835.50;;;4.19;100.00
12077;BME280;12420;42.676;23.262;2022-12-18T09:36:17;95846.00;;;4.29;100.00
12077;BME280;12420;42.676;23.262;2022-12-18T09:38:44;95848.16;;;4.25;100.00
12077;BME280;12420;42.676;23.262;2022-12-18T09:41:23;95844.19;;;4.26;100.00
12077;BME280;12420;42.676;23.262;2022-12-18T09:43:57;95854.88;;;4.43;100.00
12077;BME280;12420;42.676;23.262;2022-12-18T09:46:29;95806.13;;;4.10;100.00
12077;BME280;12420;42.676;23.262;2022-12-18T09:48:59;95828.94;;;4.34;100.00
12077;BME280;12420;42.676;23.262;2022-12-18T09:51:29;95814.03;;;4.26;100.00
12077;BME280;12420;42.676;23.262;2022-12-18T09:54:01;95835.81;;;4.67;100.00
12077;BME280;12420;42.676;23.262;2022-12-18T09:56:35;95848.88;;;4.90;100.00
12077;BME280;12420;42.676;23.262;2022-12-18T09:59:05;95847.81;;;4.88;100.00
12077;BME280;12420;42.676;23.262;2022-12-18T10:01:33;95844.16;;;4.91;100.00
12077;BME280;12420;42.676;23.262;2022-12-18T10:04:00;95843.69;;;4.83;100.00
12077;BME280;12420;42.676;23.262;2022-12-18T10:06:33;95841.41;;;5.00;100.00
12077;BME280;12420;42.676;23.262;2022-12-18T10:09:08;95847.81;;;4.97;100.00
12077;BME280;12420;42.676;23.262;2022-12-18T10:11:46;95868.25;;;4.77;100.00
12077;BME280;12420;42.676;23.262;2022-12-18T10:14:22;95797.41;;;4.67;100.00
12077;BME280;12420;42.676;23.262;2022-12-18T10:16:59;95842.59;;;5.17;100.00
12077;BME280;12420;42.676;23.262;2022-12-18T10:19:40;95779.31;;;4.32;100.00
12077;BME280;12420;42.676;23.262;2022-12-18T10:22:21;95861.53;;;4.97;100.00
12077;BME280;12420;42.676;23.262;2022-12-18T10:24:54;95860.94;;;4.84;100.00
12077;BME280;12420;42.676;23.262;2022-12-18T10:27:25;95859.09;;;4.90;100.00
12077;BME280;12420;42.676;23.262;2022-12-18T10:29:54;95861.53;;;4.88;100.00
12077;BME280;12420;42.676;23.262;2022-12-18T10:32:23;95802.00;;;4.42;100.00
12077;BME280;12420;42.676;23.262;2022-12-18T10:34:51;95849.06;;;4.50;100.00
12077;BME280;12420;42.676;23.262;2022-12-18T10:37:20;95857.44;;;4.55;100.00
12077;BME280;12420;42.676;23.262;2022-12-18T10:40:07;95820.13;;;4.30;100.00
12077;BME280;12420;42.676;23.262;2022-12-18T10:42:34;95833.69;;;4.43;100.00
12077;BME280;12420;42.676;23.262;2022-12-18T10:45:09;95855.00;;;4.57;100.00
12077;BME280;12420;42.676;23.262;2022-12-18T10:47:42;95841.91;;;4.62;100.00
12077;BME280;12420;42.676;23.262;2022-12-18T10:50:19;95850.91;;;4.53;100.00
12077;BME280;12420;42.676;23.262;2022-12-18T10:52:57;95853.31;;;4.78;100.00
12077;BME280;12420;42.676;23.262;2022-12-18T10:55:31;95858.78;;;4.97;100.00
12077;BME280;12420;42.676;23.262;2022-12-18T10:58:16;95849.94;;;5.02;100.00
12077;BME280;12420;42.676;23.262;2022-12-18T11:01:02;95850.88;;;4.81;100.00
12077;BME280;12420;42.676;23.262;2022-12-18T11:03:32;95853.16;;;4.73;100.00
12077;BME280;12420;42.676;23.262;2022-12-18T11:06:06;95846.91;;;4.82;100.00
12077;BME280;12420;42.676;23.262;2022-12-18T11:08:33;95859.25;;;4.86;100.00
12077;BME280;12420;42.676;23.262;2022-12-18T11:11:00;95816.16;;;4.50;100.00
12077;BME280;12420;42.676;23.262;2022-12-18T11:13:29;95859.13;;;4.71;100.00
12077;BME280;12420;42.676;23.262;2022-12-18T11:15:58;95822.41;;;4.50;100.00
12077;BME280;12420;42.676;23.262;2022-12-18T11:18:28;95867.19;;;4.66;100.00
12077;BME280;12420;42.676;23.262;2022-12-18T11:20:57;95899.03;;;4.63;100.00
12077;BME280;12420;42.676;23.262;2022-12-18T11:23:26;95863.06;;;4.70;100.00
12077;BME280;12420;42.676;23.262;2022-12-18T11:25:56;95719.94;;;3.65;100.00
12077;BME280;12420;42.676;23.262;2022-12-18T11:28:29;95858.22;;;4.38;100.00
12077;BME280;12420;42.676;23.262;2022-12-18T11:31:25;95837.03;;;4.29;100.00
12077;BME280;12420;42.676;23.262;2022-12-18T11:33:58;95835.97;;;4.35;100.00
12077;BME280;12420;42.676;23.262;2022-12-18T11:36:31;95853.31;;;4.60;100.00
12077;BME280;12420;42.676;23.262;2022-12-18T11:39:03;95850.44;;;4.54;100.00
12077;BME280;12420;42.676;23.262;2022-12-18T11:41:36;95868.09;;;4.63;100.00
12077;BME280;12420;42.676;23.262;2022-12-18T11:44:25;95867.03;;;4.69;100.00
12077;BME280;12420;42.676;23.262;2022-12-18T11:46:59;95886.22;;;4.60;100.00
12077;BME280;12420;42.676;23.262;2022-12-18T11:49:30;95883.78;;;4.62;100.00
12077;BME280;12420;42.676;23.262;2022-12-18T11:52:03;95824.09;;;4.20;100.00
12077;BME280;12420;42.676;23.262;2022-12-18T11:54:31;95867.66;;;4.73;100.00
12077;BME280;12420;42.676;23.262;2022-12-18T11:57:03;95862.72;;;4.96;100.00
12077;BME280;12420;42.676;23.262;2022-12-18T11:59:37;95855.59;;;4.80;100.00
12077;BME280;12420;42.676;23.262;2022-12-18T12:02:33;95805.97;;;4.50;100.00
12077;BME280;12420;42.676;23.262;2022-12-18T12:05:29;95835.94;;;4.82;100.00
12077;BME280;12420;42.676;23.262;2022-12-18T12:08:03;95828.78;;;4.84;100.00
12077;BME280;12420;42.676;23.262;2022-12-18T12:10:40;95826.34;;;4.86;100.00
12077;BME280;12420;42.676;23.262;2022-12-18T12:13:23;95857.81;;;5.18;100.00
12077;BME280;12420;42.676;23.262;2022-12-18T12:16:01;95848.84;;;5.09;100.00
12077;BME280;12420;42.676;23.262;2022-12-18T12:18:41;95859.97;;;5.14;100.00
12077;BME280;12420;42.676;23.262;2022-12-18T12:21:14;95852.88;;;5.41;100.00
12077;BME280;12420;42.676;23.262;2022-12-18T12:23:50;95854.34;;;5.60;100.00
12077;BME280;12420;42.676;23.262;2022-12-18T12:26:24;95867.50;;;5.47;100.00
12077;BME280;12420;42.676;23.262;2022-12-18T12:29:05;95843.19;;;5.12;100.00
12077;BME280;12420;42.676;23.262;2022-12-18T12:31:51;95869.44;;;5.04;100.00
12077;BME280;12420;42.676;23.262;2022-12-18T12:34:23;95868.22;;;5.14;100.00
12077;BME280;12420;42.676;23.262;2022-12-18T12:37:06;95868.78;;;5.18;100.00
12077;BME280;12420;42.676;23.262;2022-12-18T12:39:41;95874.00;;;5.07;100.00
12077;BME280;12420;42.676;23.262;2022-12-18T12:42:17;95797.56;;;4.63;100.00
12077;BME280;12420;42.676;23.262;2022-12-18T12:45:06;95852.63;;;5.30;100.00
12077;BME280;12420;42.676;23.262;2022-12-18T12:47:37;95861.00;;;5.26;100.00
12077;BME280;12420;42.676;23.262;2022-12-18T12:50:15;95866.66;;;5.22;100.00
12077;BME280;12420;42.676;23.262;2022-12-18T12:52:45;95873.97;;;5.16;100.00
12077;BME280;12420;42.676;23.262;2022-12-18T12:55:16;95868.81;;;5.09;100.00
12077;BME280;12420;42.676;23.262;2022-12-18T12:57:51;95878.75;;;4.88;100.00
12077;BME280;12420;42.676;23.262;2022-12-18T13:00:21;95868.81;;;5.09;100.00
12077;BME280;12420;42.676;23.262;2022-12-18T13:02:54;95833.06;;;4.67;100.00
12077;BME280;12420;42.676;23.262;2022-12-18T13:05:29;95872.53;;;4.78;100.00